Time;durP1;ratioP1;P1;durP2;ratioP2;P2;SDS_P1;SDS_P2;PMS_P1;PMS_P2;Temp;Humidity;BMP_temperature;BMP_pressure;BME280_temperature;BME280_humidity;BME280_pressure;Samples;Min_cycle;Max_cycle;Signal;HPM_P1;HPM_P2
2023/06/12 00:00:47;;;;;;;10.10;5.97;;;;;;;13.88;100.00;93698.59;5018435;28;20119;-58
2023/06/12 00:03:14;;;;;;;8.23;6.00;;;;;;;13.89;100.00;93710.44;5017682;28;20034;-58
2023/06/12 00:05:43;;;;;;;18.20;12.50;;;;;;;13.89;100.00;93704.91;5031490;28;20063;-58
2023/06/12 00:08:11;;;;;;;8.40;6.60;;;;;;;13.86;100.00;93703.78;5030477;28;21813;-58
2023/06/12 00:10:42;;;;;;;8.45;6.32;;;;;;;13.69;100.00;93696.84;5031431;28;20236;-59
2023/06/12 00:13:09;;;;;;;8.13;6.15;;;;;;;13.50;100.00;93706.88;5019791;28;20037;-58
2023/06/12 00:15:36;;;;;;;8.70;6.07;;;;;;;13.46;100.00;93715.25;5002725;28;20544;-58
2023/06/12 00:18:04;;;;;;;7.90;6.13;;;;;;;13.46;100.00;93715.25;5001491;28;20054;-63
2023/06/12 00:20:31;;;;;;;7.33;5.70;;;;;;;13.39;100.00;93707.19;4991797;28;20050;-60
2023/06/12 00:22:58;;;;;;;8.13;6.18;;;;;;;13.29;100.00;93699.97;5001669;28;20063;-60
2023/06/12 00:25:26;;;;;;;9.48;7.15;;;;;;;13.21;100.00;93710.44;5017816;28;20049;-60
2023/06/12 00:27:52;;;;;;;10.82;7.70;;;;;;;12.96;100.00;93705.63;5018230;28;20041;-58
2023/06/12 00:30:19;;;;;;;11.27;7.50;;;;;;;12.93;100.00;93710.03;5007983;28;20056;-57
2023/06/12 00:32:46;;;;;;;15.07;9.93;;;;;;;12.93;100.00;93706.50;5007322;28;20042;-58
2023/06/12 00:35:15;;;;;;;11.25;8.05;;;;;;;12.99;100.00;93713.03;4999654;28;20439;-58
2023/06/12 00:37:42;;;;;;;9.93;6.90;;;;;;;12.87;100.00;93714.50;4991632;28;20046;-59
2023/06/12 00:40:10;;;;;;;13.57;8.95;;;;;;;12.84;100.00;93712.66;4990309;28;20736;-58
2023/06/12 00:42:50;;;;;;;22.40;14.13;;;;;;;12.82;100.00;93714.28;4999034;28;20038;-59
2023/06/12 00:45:19;;;;;;;11.83;8.07;;;;;;;12.82;100.00;93720.56;5025962;28;20617;-58
2023/06/12 00:47:56;;;;;;;12.38;8.68;;;;;;;12.89;100.00;93714.84;5016762;28;20048;-58
2023/06/12 00:50:25;;;;;;;15.85;8.75;;;;;;;12.90;100.00;93712.91;5030364;28;20064;-63
2023/06/12 00:52:54;;;;;;;9.85;6.90;;;;;;;12.93;100.00;93712.78;5022507;28;20048;-58
2023/06/12 00:55:21;;;;;;;10.05;7.28;;;;;;;12.92;100.00;93710.47;5009353;28;20041;-58
2023/06/12 00:57:48;;;;;;;9.47;6.70;;;;;;;12.97;100.00;93705.19;5013068;28;20042;-59
2023/06/12 01:00:19;;;;;;;8.93;6.85;;;;;;;12.98;100.00;93703.22;5025708;28;20041;-63
2023/06/12 01:02:53;;;;;;;9.68;7.28;;;;;;;12.97;100.00;93699.66;4990547;28;20102;-58
2023/06/12 01:05:33;;;;;;;10.07;6.72;;;;;;;13.03;100.00;93704.66;4991130;28;20100;-60
2023/06/12 01:08:29;;;;;;;9.05;6.88;;;;;;;12.85;100.00;93702.41;5019347;28;20076;-63
2023/06/12 01:11:04;;;;;;;9.60;7.00;;;;;;;12.72;100.00;93696.84;5029516;28;20068;-58
2023/06/12 01:13:33;;;;;;;9.20;7.03;;;;;;;12.51;100.00;93709.19;5029929;28;20397;-58
2023/06/12 01:16:00;;;;;;;14.18;7.00;;;;;;;12.37;100.00;93711.13;5003429;28;20044;-58
2023/06/12 01:18:27;;;;;;;9.10;6.40;;;;;;;12.34;100.00;93700.19;5014939;28;20053;-59
2023/06/12 01:20:56;;;;;;;9.55;7.18;;;;;;;12.36;100.00;93714.28;5015376;28;20061;-58
2023/06/12 01:24:05;;;;;;;9.63;7.00;;;;;;;12.43;100.00;93705.84;4990787;28;20054;-57
2023/06/12 01:26:44;;;;;;;9.20;6.68;;;;;;;12.34;100.00;93698.22;4999734;28;20055;-62
2023/06/12 01:29:33;;;;;;;9.35;6.47;;;;;;;12.33;100.00;93710.41;5028159;28;20833;-63
2023/06/12 01:32:07;;;;;;;9.30;6.78;;;;;;;12.14;100.00;93700.31;4990832;28;20063;-58
2023/06/12 01:34:51;;;;;;;9.10;6.72;;;;;;;12.33;100.00;93701.38;5005321;28;20045;-59
2023/06/12 01:37:26;;;;;;;9.27;6.60;;;;;;;12.34;100.00;93703.72;5021626;28;21217;-57
2023/06/12 01:39:57;;;;;;;10.70;7.10;;;;;;;12.15;100.00;93704.59;5007842;28;20052;-58
2023/06/12 01:42:26;;;;;;;11.15;7.60;;;;;;;12.12;100.00;93702.72;5016786;28;20042;-57
2023/06/12 01:44:53;;;;;;;9.20;6.60;;;;;;;12.22;100.00;93703.66;5022328;28;20048;-57
2023/06/12 01:47:20;;;;;;;11.20;7.40;;;;;;;12.18;100.00;93693.50;5029234;28;20516;-58
2023/06/12 01:49:48;;;;;;;10.20;7.17;;;;;;;12.19;100.00;93697.00;5024936;28;20223;-57
2023/06/12 01:52:14;;;;;;;10.63;7.25;;;;;;;11.89;100.00;93692.63;5003612;28;20044;-63
2023/06/12 01:54:41;;;;;;;9.77;7.53;;;;;;;11.94;100.00;93692.13;5008255;28;20042;-59
2023/06/12 01:57:08;;;;;;;10.05;7.72;;;;;;;12.02;100.00;93688.00;4991945;28;20687;-58
2023/06/12 01:59:35;;;;;;;10.15;7.18;;;;;;;12.02;100.00;93688.00;5005052;28;20041;-62
2023/06/12 02:02:02;;;;;;;11.00;7.20;;;;;;;12.15;100.00;93685.31;5028847;28;20042;-57
2023/06/12 02:04:30;;;;;;;11.05;7.65;;;;;;;12.17;100.00;93686.47;5028910;28;20037;-57
2023/06/12 02:06:57;;;;;;;10.02;7.55;;;;;;;12.08;100.00;93689.03;5028253;28;20218;-58
2023/06/12 02:09:24;;;;;;;10.18;6.63;;;;;;;12.25;100.00;93692.53;5013695;28;20157;-62
2023/06/12 02:11:51;;;;;;;9.95;7.20;;;;;;;12.80;100.00;93695.44;4987517;28;20061;-61
2023/06/12 02:14:18;;;;;;;9.40;6.70;;;;;;;13.01;100.00;93682.28;4988960;28;20046;-60
2023/06/12 02:16:47;;;;;;;8.77;6.70;;;;;;;13.25;100.00;93689.06;5001785;28;20058;-56
2023/06/12 02:19:14;;;;;;;9.20;6.90;;;;;;;12.80;100.00;93681.69;4989524;28;20551;-63
2023/06/12 02:21:41;;;;;;;9.80;7.00;;;;;;;12.19;100.00;93694.25;4995203;28;20064;-57
2023/06/12 02:24:08;;;;;;;9.63;7.28;;;;;;;12.17;100.00;93691.16;4994715;28;20417;-57
2023/06/12 02:26:35;;;;;;;9.73;7.30;;;;;;;12.21;100.00;93700.09;5001194;28;20069;-63
2023/06/12 02:29:12;;;;;;;10.02;7.05;;;;;;;11.80;100.00;93693.22;5026175;28;20087;-63
2023/06/12 02:31:39;;;;;;;10.15;7.38;;;;;;;11.86;100.00;93699.75;5028347;28;20043;-63
2023/06/12 02:34:06;;;;;;;10.85;7.78;;;;;;;11.92;100.00;93706.31;5016078;28;20044;-57
2023/06/12 02:36:39;;;;;;;10.25;7.35;;;;;;;11.62;100.00;93692.88;5026411;28;20041;-59
2023/06/12 02:39:08;;;;;;;10.20;7.30;;;;;;;11.68;100.00;93699.41;5027660;28;20045;-62
2023/06/12 02:41:35;;;;;;;9.90;7.15;;;;;;;11.61;100.00;93708.59;5028428;28;20329;-57
2023/06/12 02:44:02;;;;;;;10.88;7.40;;;;;;;11.67;100.00;93698.63;5014380;28;20210;-63
2023/06/12 02:46:29;;;;;;;10.10;7.30;;;;;;;11.64;100.00;93698.72;5028416;28;20049;-59
2023/06/12 02:48:56;;;;;;;11.15;7.60;;;;;;;11.68;100.00;93691.16;5010274;28;20057;-57
2023/06/12 02:51:23;;;;;;;10.57;7.43;;;;;;;11.67;100.00;93695.09;5028439;28;20033;-57
2023/06/12 02:53:53;;;;;;;9.50;7.00;;;;;;;11.75;100.00;93700.00;5028216;28;20044;-62
2023/06/12 02:56:20;;;;;;;10.75;8.07;;;;;;;11.59;100.00;93694.50;5015281;28;20102;-56
2023/06/12 02:58:46;;;;;;;12.70;8.05;;;;;;;11.65;100.00;93695.53;5026431;28;20041;-57
2023/06/12 03:01:16;;;;;;;9.73;7.28;;;;;;;11.58;100.00;93706.69;5028199;28;20041;-62
2023/06/12 03:03:44;;;;;;;10.17;7.70;;;;;;;11.35;100.00;93700.13;5027915;28;20037;-55
2023/06/12 03:06:11;;;;;;;11.43;7.65;;;;;;;11.52;100.00;93703.66;5026708;28;20040;-61
2023/06/12 03:08:38;;;;;;;10.77;7.85;;;;;;;11.68;100.00;93704.91;5008519;28;20130;-62
2023/06/12 03:11:05;;;;;;;11.38;7.75;;;;;;;11.86;100.00;93701.72;5023308;28;20041;-62
2023/06/12 03:13:32;;;;;;;10.57;7.75;;;;;;;11.54;100.00;93706.75;5014462;28;20048;-59
2023/06/12 03:15:59;;;;;;;10.27;7.57;;;;;;;11.55;100.00;93708.31;5012503;28;20053;-55
2023/06/12 03:18:25;;;;;;;10.38;7.70;;;;;;;11.64;100.00;93712.44;5028144;28;20046;-57
2023/06/12 03:20:52;;;;;;;13.80;7.50;;;;;;;11.72;100.00;93711.09;5005530;28;20046;-58
2023/06/12 03:23:19;;;;;;;9.55;7.20;;;;;;;11.81;100.00;93719.50;5014893;28;20041;-64
2023/06/12 03:25:47;;;;;;;10.52;7.70;;;;;;;11.67;100.00;93717.06;5014797;28;20613;-60
2023/06/12 03:28:14;;;;;;;9.83;7.33;;;;;;;11.60;100.00;93713.28;5026644;28;20053;-61
2023/06/12 03:30:41;;;;;;;12.07;7.80;;;;;;;11.74;100.00;93720.44;5031520;28;20046;-61
2023/06/12 03:33:09;;;;;;;9.98;7.63;;;;;;;11.92;100.00;93711.03;5030941;28;20403;-57
2023/06/12 03:35:36;;;;;;;10.82;7.32;;;;;;;12.07;100.00;93712.22;5031665;28;20049;-57
2023/06/12 03:38:03;;;;;;;10.85;7.95;;;;;;;12.39;100.00;93716.97;5030155;28;20049;-57
2023/06/12 03:40:29;;;;;;;10.23;7.60;;;;;;;12.54;100.00;93705.59;5031088;28;20155;-61
2023/06/12 03:42:56;;;;;;;9.90;7.40;;;;;;;12.83;100.00;93702.06;5029997;28;20040;-58
2023/06/12 03:45:23;;;;;;;11.05;7.13;;;;;;;13.07;100.00;93706.09;5031607;28;20042;-57
2023/06/12 03:47:50;;;;;;;12.18;7.43;;;;;;;13.42;100.00;93698.06;5030999;28;20037;-56
2023/06/12 03:50:19;;;;;;;9.48;6.82;;;;;;;13.53;100.00;93704.00;5031556;28;20052;-57
2023/06/12 03:52:46;;;;;;;10.30;7.20;;;;;;;13.68;100.00;93703.56;5031209;28;20045;-57
2023/06/12 03:55:13;;;;;;;10.85;7.28;;;;;;;13.70;100.00;93712.19;5031507;28;20037;-56
2023/06/12 03:57:40;;;;;;;8.30;6.80;;;;;;;13.84;100.00;93710.97;5013776;28;20144;-61
2023/06/12 04:00:08;;;;;;;11.68;7.00;;;;;;;13.84;100.00;93706.22;5011708;28;20048;-58
2023/06/12 04:02:36;;;;;;;11.50;7.43;;;;;;;13.82;100.00;93711.41;5027945;28;20502;-57
2023/06/12 04:05:03;;;;;;;8.70;7.17;;;;;;;13.90;100.00;93711.97;5026517;28;20089;-62
2023/06/12 04:07:30;;;;;;;11.23;6.95;;;;;;;14.07;100.00;93710.63;5023409;28;20052;-57
2023/06/12 04:09:56;;;;;;;9.88;7.10;;;;;;;14.25;100.00;93714.81;5006361;28;20490;-56
2023/06/12 04:12:23;;;;;;;9.48;7.30;;;;;;;14.35;100.00;93708.16;4991819;28;20068;-57
2023/06/12 04:14:50;;;;;;;9.40;7.07;;;;;;;14.42;100.00;93707.91;4998056;28;20438;-58
2023/06/12 04:17:17;;;;;;;9.13;7.13;;;;;;;14.50;100.00;93714.75;5011181;28;20064;-57
2023/06/12 04:19:43;;;;;;;8.48;6.80;;;;;;;14.53;100.00;93721.38;4991050;28;20049;-62
2023/06/12 04:22:12;;;;;;;10.35;7.32;;;;;;;14.54;100.00;93720.16;4991206;28;20069;-62
2023/06/12 04:24:42;;;;;;;9.13;7.25;;;;;;;14.58;100.00;93718.06;4997111;28;20457;-62
2023/06/12 04:27:13;;;;;;;8.90;7.38;;;;;;;15.42;100.00;93725.78;4999160;28;20682;-57
2023/06/12 04:29:42;;;;;;;10.30;7.60;;;;;;;17.76;89.22;93717.72;5009879;28;20488;-58
2023/06/12 04:32:13;;;;;;;10.60;7.15;;;;;;;19.29;79.26;93716.28;5028987;28;20046;-58
2023/06/12 04:34:41;;;;;;;8.45;7.40;;;;;;;20.02;74.23;93713.25;5030465;28;20050;-57
2023/06/12 04:37:11;;;;;;;9.48;7.22;;;;;;;19.37;74.15;93722.25;5025627;28;20041;-58
2023/06/12 04:39:38;;;;;;;8.80;6.53;;;;;;;19.29;76.17;93721.84;5007298;28;20095;-57
2023/06/12 04:42:07;;;;;;;9.03;7.13;;;;;;;17.96;82.20;93730.34;5016923;28;20171;-57
2023/06/12 04:44:35;;;;;;;11.70;7.10;;;;;;;17.72;84.75;93719.91;5019162;28;20052;-57
2023/06/12 04:47:07;;;;;;;11.52;6.75;;;;;;;17.71;85.09;93720.38;5029589;28;20045;-57
2023/06/12 04:49:35;;;;;;;9.73;7.40;;;;;;;16.70;91.88;93732.25;5030656;28;20046;-58
2023/06/12 04:52:03;;;;;;;9.60;7.28;;;;;;;16.83;92.20;93726.63;5008529;28;20099;-62
2023/06/12 04:54:35;;;;;;;9.37;7.43;;;;;;;16.56;93.98;93733.66;5030320;28;20049;-57
2023/06/12 04:57:12;;;;;;;8.68;7.25;;;;;;;16.50;94.56;93722.41;5029647;28;20164;-62
2023/06/12 04:59:39;;;;;;;9.38;7.60;;;;;;;16.15;97.57;93719.84;5030153;28;20061;-62
2023/06/12 05:02:08;;;;;;;9.38;7.30;;;;;;;16.41;96.26;93732.69;5029075;28;20362;-65
2023/06/12 05:04:38;;;;;;;9.05;7.63;;;;;;;16.40;97.07;93726.38;5030140;28;20477;-65
2023/06/12 05:07:13;;;;;;;12.00;7.50;;;;;;;16.31;97.74;93723.56;5029195;28;20049;-62
2023/06/12 05:09:40;;;;;;;11.27;7.25;;;;;;;16.47;96.83;93717.75;5029728;28;20119;-60
2023/06/12 05:12:07;;;;;;;11.15;7.50;;;;;;;16.58;96.75;93722.88;5004768;28;20049;-57
2023/06/12 05:14:34;;;;;;;9.05;7.13;;;;;;;16.63;95.68;93721.50;5010095;28;20576;-57
2023/06/12 05:17:01;;;;;;;11.00;7.72;;;;;;;18.26;87.95;93713.88;5009183;28;20493;-65
2023/06/12 05:19:28;;;;;;;8.37;7.47;;;;;;;21.21;72.30;93710.88;4996762;28;20204;-58
2023/06/12 05:21:55;;;;;;;8.27;6.95;;;;;;;23.78;59.96;93705.22;5017954;28;20503;-63
2023/06/12 05:24:22;;;;;;;8.15;6.97;;;;;;;24.06;55.26;93708.06;5028400;28;20430;-61
2023/06/12 05:26:50;;;;;;;8.88;7.28;;;;;;;25.09;51.82;93707.41;5018779;28;20049;-58
2023/06/12 05:29:17;;;;;;;8.20;7.10;;;;;;;25.02;48.78;93708.69;5017384;28;20067;-57
2023/06/12 05:31:44;;;;;;;8.07;6.67;;;;;;;23.58;53.46;93712.53;5012385;28;20046;-55
2023/06/12 05:34:11;;;;;;;8.25;6.35;;;;;;;26.88;45.88;93707.50;5009814;28;20037;-59
2023/06/12 05:36:38;;;;;;;12.35;6.47;;;;;;;27.17;42.72;93707.94;5009578;28;20054;-58
2023/06/12 05:39:05;;;;;;;7.53;6.70;;;;;;;26.28;43.39;93716.72;5008963;28;20565;-58
2023/06/12 05:41:40;;;;;;;7.55;6.75;;;;;;;26.63;42.07;93717.97;5009229;28;20071;-57
2023/06/12 05:44:08;;;;;;;10.37;6.73;;;;;;;27.32;41.39;93704.72;5009055;28;20498;-57
2023/06/12 05:46:35;;;;;;;8.30;6.03;;;;;;;29.33;37.33;93706.94;4995833;28;20052;-57
2023/06/12 05:49:01;;;;;;;7.40;5.60;;;;;;;30.56;34.84;93707.59;5008935;28;20123;-60
2023/06/12 05:51:28;;;;;;;7.93;6.03;;;;;;;28.94;36.41;93711.28;5009355;28;20057;-64
2023/06/12 05:53:55;;;;;;;7.65;6.30;;;;;;;30.13;34.27;93709.63;4996059;28;20038;-62
2023/06/12 05:56:23;;;;;;;7.10;6.17;;;;;;;29.03;35.86;93704.41;5008179;28;20105;-58
2023/06/12 05:58:50;;;;;;;6.95;5.65;;;;;;;30.29;33.62;93715.44;4998064;28;20100;-58
2023/06/12 06:01:21;;;;;;;7.20;5.68;;;;;;;30.66;32.54;93705.78;4996369;28;20387;-57
2023/06/12 06:03:48;;;;;;;6.82;6.07;;;;;;;28.78;36.10;93709.53;5007276;28;20052;-60
2023/06/12 06:06:16;;;;;;;6.68;6.05;;;;;;;29.39;35.28;93712.50;4988267;28;20380;-58
2023/06/12 06:08:43;;;;;;;7.33;5.80;;;;;;;30.09;33.24;93722.59;4997749;28;20044;-58
2023/06/12 06:11:09;;;;;;;6.72;6.00;;;;;;;28.59;35.42;93715.22;5002013;28;20662;-60
2023/06/12 06:13:36;;;;;;;6.40;5.80;;;;;;;29.17;34.25;93722.19;5009688;28;20463;-58
2023/06/12 06:16:03;;;;;;;6.60;5.90;;;;;;;25.85;39.50;93733.38;5011119;28;20457;-62
2023/06/12 06:18:34;;;;;;;8.07;6.07;;;;;;;27.77;37.45;93718.25;5028789;28;20041;-59
2023/06/12 06:21:01;;;;;;;6.80;5.80;;;;;;;29.87;33.65;93725.38;5009602;28;20050;-58
2023/06/12 06:23:27;;;;;;;6.93;6.22;;;;;;;30.22;32.73;93720.47;5002362;28;20051;-64
2023/06/12 06:25:54;;;;;;;6.10;5.50;;;;;;;30.03;32.65;93715.00;4988836;28;20046;-58
2023/06/12 06:28:22;;;;;;;6.65;6.00;;;;;;;28.03;34.20;93720.47;4989546;28;20415;-58
2023/06/12 06:30:48;;;;;;;6.80;5.75;;;;;;;31.41;30.99;93715.41;5014642;28;20044;-59
2023/06/12 06:33:15;;;;;;;6.17;5.43;;;;;;;31.24;30.08;93721.53;5028711;28;20134;-61
2023/06/12 06:35:43;;;;;;;6.00;5.40;;;;;;;30.67;31.62;93721.47;5028422;28;20041;-58
2023/06/12 06:38:10;;;;;;;10.70;5.80;;;;;;;30.32;31.66;93731.34;5027365;28;20715;-63
2023/06/12 06:40:37;;;;;;;5.93;5.32;;;;;;;29.56;31.56;93717.78;5028707;28;20049;-58
2023/06/12 06:43:04;;;;;;;6.93;5.57;;;;;;;31.37;29.54;93728.41;5014679;28;20056;-58
2023/06/12 06:45:30;;;;;;;7.13;5.30;;;;;;;31.06;30.58;93733.91;5028495;28;20037;-58
2023/06/12 06:47:57;;;;;;;7.18;5.80;;;;;;;30.61;30.17;93732.19;5027489;28;20045;-58
2023/06/12 06:50:24;;;;;;;5.93;5.32;;;;;;;30.26;30.46;93729.38;5028604;28;20045;-63
2023/06/12 06:52:51;;;;;;;7.25;5.82;;;;;;;31.12;29.80;93723.16;5010021;28;20041;-59
2023/06/12 06:55:18;;;;;;;7.20;5.18;;;;;;;32.38;27.81;93722.63;5028579;28;20033;-58
2023/06/12 06:57:44;;;;;;;5.63;5.13;;;;;;;30.49;29.54;93728.88;5027789;28;20075;-56
2023/06/12 07:00:11;;;;;;;6.38;5.65;;;;;;;29.41;30.94;93732.50;5029144;28;20537;-64
2023/06/12 07:02:42;;;;;;;6.50;5.28;;;;;;;30.44;29.61;93724.09;5031915;28;20037;-64
2023/06/12 07:05:09;;;;;;;6.70;5.55;;;;;;;29.05;31.03;93730.06;5011121;28;20100;-58
2023/06/12 07:07:38;;;;;;;6.22;5.13;;;;;;;28.66;32.60;93718.19;5027480;28;20053;-59
2023/06/12 07:10:25;;;;;;;8.80;5.70;;;;;;;29.09;30.95;93725.59;5031128;28;20041;-61
2023/06/12 07:12:56;;;;;;;6.45;5.20;;;;;;;31.32;28.29;93718.00;5007571;28;20418;-58
2023/06/12 07:15:26;;;;;;;6.70;5.50;;;;;;;27.82;32.79;93725.09;5014107;28;20034;-58
2023/06/12 07:17:53;;;;;;;7.03;5.40;;;;;;;32.36;27.38;93728.13;5031851;28;20038;-62
2023/06/12 07:20:21;;;;;;;6.10;5.05;;;;;;;32.87;26.66;93725.72;5005914;28;20053;-58
2023/06/12 07:22:47;;;;;;;6.10;4.87;;;;;;;34.54;24.32;93720.13;4992407;28;20042;-58
2023/06/12 07:25:14;;;;;;;5.50;4.90;;;;;;;29.15;30.06;93731.19;4993050;28;20042;-67
2023/06/12 07:27:41;;;;;;;6.40;5.50;;;;;;;30.63;28.39;93723.91;5008839;28;20050;-59
2023/06/12 07:30:09;;;;;;;6.97;5.32;;;;;;;31.20;27.53;93732.47;5028397;28;20048;-67
2023/06/12 07:32:36;;;;;;;5.32;4.82;;;;;;;34.47;24.12;93720.16;5012554;28;20042;-60
2023/06/12 07:35:05;;;;;;;5.63;5.03;;;;;;;32.66;23.83;93721.00;5012036;28;20966;-65
2023/06/12 07:37:35;;;;;;;5.93;5.20;;;;;;;33.77;23.50;93714.81;5012210;28;20417;-61
2023/06/12 07:40:07;;;;;;;6.65;5.10;;;;;;;32.92;24.27;93724.75;5008389;28;20049;-62
2023/06/12 07:42:34;;;;;;;6.13;5.18;;;;;;;32.14;24.51;93732.41;5012144;28;20459;-60
2023/06/12 07:45:02;;;;;;;5.80;5.20;;;;;;;31.85;23.76;93738.16;5011668;28;20364;-65
2023/06/12 07:47:29;;;;;;;6.90;5.13;;;;;;;29.89;26.65;93724.81;5010797;28;20120;-63
2023/06/12 07:49:56;;;;;;;7.45;5.60;;;;;;;30.37;26.31;93724.81;5011928;28;20052;-59
2023/06/12 07:52:23;;;;;;;7.15;5.15;;;;;;;31.22;25.47;93727.00;5011844;28;20042;-67
2023/06/12 07:54:50;;;;;;;6.43;5.47;;;;;;;30.51;25.65;93723.41;5011608;28;20044;-58
2023/06/12 07:57:17;;;;;;;7.47;5.32;;;;;;;31.82;25.59;93710.16;5011550;28;20044;-58
2023/06/12 07:59:44;;;;;;;6.33;4.90;;;;;;;35.08;21.79;93713.28;5014938;28;20139;-67
2023/06/12 08:02:12;;;;;;;7.50;4.60;;;;;;;36.34;21.07;93708.69;5025166;28;20091;-59
2023/06/12 08:04:42;;;;;;;6.95;5.10;;;;;;;34.47;21.38;93720.16;5000144;28;20085;-62
2023/06/12 08:07:12;;;;;;;8.48;5.10;;;;;;;35.28;21.22;93706.47;5009084;28;20685;-67
2023/06/12 08:09:42;;;;;;;5.38;4.68;;;;;;;35.72;20.31;93710.78;5009956;28;20045;-59
2023/06/12 08:12:12;;;;;;;6.90;4.90;;;;;;;32.77;22.35;93708.47;5030499;28;20307;-59
2023/06/12 08:14:39;;;;;;;6.63;4.80;;;;;;;30.43;25.14;93714.84;5015499;28;20042;-62
2023/06/12 08:17:06;;;;;;;6.05;4.93;;;;;;;31.19;24.11;93716.03;4993935;28;20038;-58
2023/06/12 08:19:34;;;;;;;5.88;4.82;;;;;;;28.82;25.70;93701.50;5011943;28;20038;-58
2023/06/12 08:22:01;;;;;;;8.98;5.10;;;;;;;29.25;25.61;93709.66;5010898;28;20052;-58
2023/06/12 08:24:30;;;;;;;7.27;5.20;;;;;;;27.29;27.54;93695.28;5011783;28;20033;-66
2023/06/12 08:26:58;;;;;;;7.55;5.28;;;;;;;27.21;27.33;93708.41;5011059;28;20072;-62
2023/06/12 08:29:25;;;;;;;8.30;5.30;;;;;;;27.21;27.67;93708.41;5009876;28;20057;-59
2023/06/12 08:31:53;;;;;;;11.68;5.15;;;;;;;29.25;25.47;93694.78;5005225;28;20034;-60
2023/06/12 08:34:24;;;;;;;6.50;5.50;;;;;;;25.50;30.50;93723.59;4996405;28;20418;-57
2023/06/12 08:36:52;;;;;;;7.10;5.13;;;;;;;27.49;27.08;93710.91;5010702;28;20050;-58
2023/06/12 08:39:19;;;;;;;5.50;4.90;;;;;;;28.19;25.87;93713.03;5028687;28;20049;-58
2023/06/12 08:41:55;;;;;;;6.68;5.43;;;;;;;28.74;24.84;93704.19;5030271;28;20498;-59
2023/06/12 08:44:23;;;;;;;6.75;5.38;;;;;;;26.24;28.02;93712.66;5016313;28;20050;-66
2023/06/12 08:46:54;;;;;;;9.13;5.20;;;;;;;26.99;25.75;93717.13;4998842;28;20451;-64
2023/06/12 08:49:21;;;;;;;6.30;5.00;;;;;;;29.00;24.25;93705.53;5009785;28;20050;-58
2023/06/12 08:51:50;;;;;;;9.18;4.85;;;;;;;29.68;23.74;93697.22;5010458;28;20046;-62
2023/06/12 08:54:18;;;;;;;10.52;5.25;;;;;;;28.53;25.07;93711.75;5010837;28;20037;-65
2023/06/12 08:56:46;;;;;;;9.55;5.50;;;;;;;28.01;25.95;93700.50;5010613;28;20038;-58
2023/06/12 08:59:14;;;;;;;7.32;4.70;;;;;;;29.91;23.89;93693.16;5009477;28;20100;-59
2023/06/12 09:01:42;;;;;;;9.03;5.30;;;;;;;30.37;23.05;93694.41;5016474;28;20042;-59
2023/06/12 09:04:21;;;;;;;9.23;4.70;;;;;;;30.42;22.81;93687.84;5027246;28;20786;-66
2023/06/12 09:06:50;;;;;;;5.85;5.22;;;;;;;28.21;25.54;93712.47;5010380;28;20050;-66
2023/06/12 09:09:17;;;;;;;7.35;4.80;;;;;;;30.80;23.08;93693.06;5022166;28;20045;-59
2023/06/12 09:11:44;;;;;;;6.68;5.20;;;;;;;26.01;29.42;93701.59;5029997;28;20145;-56
2023/06/12 09:14:11;;;;;;;6.30;5.10;;;;;;;27.92;26.09;93703.69;4998883;28;20042;-64
2023/06/12 09:16:38;;;;;;;6.40;5.20;;;;;;;30.87;23.48;93697.28;4998159;28;20046;-58
2023/06/12 09:19:05;;;;;;;7.50;4.90;;;;;;;31.48;22.78;93699.78;5007664;28;20041;-59
2023/06/12 09:21:32;;;;;;;8.88;5.22;;;;;;;27.30;27.04;93693.22;5014136;28;20066;-63
2023/06/12 09:23:58;;;;;;;6.05;5.45;;;;;;;30.35;23.28;93696.28;5007255;28;20056;-60
2023/06/12 09:26:25;;;;;;;6.30;4.80;;;;;;;31.43;22.17;93687.25;4999688;28;20046;-59
2023/06/12 09:28:53;;;;;;;7.43;4.78;;;;;;;33.74;20.39;93684.63;4993359;28;20038;-58
2023/06/12 09:31:21;;;;;;;7.70;5.15;;;;;;;30.98;22.53;93694.16;4990767;28;20046;-58
2023/06/12 09:33:51;;;;;;;8.20;4.75;;;;;;;32.49;21.56;93695.94;5003822;28;20049;-58
2023/06/12 09:36:19;;;;;;;7.28;5.00;;;;;;;34.28;19.15;93681.53;5020009;28;20057;-58
2023/06/12 09:38:48;;;;;;;6.07;4.80;;;;;;;32.63;20.33;93685.19;5029508;28;20042;-57
2023/06/12 09:41:14;;;;;;;5.70;5.10;;;;;;;29.91;22.95;93679.03;5030010;28;20139;-58
2023/06/12 09:43:41;;;;;;;5.97;4.90;;;;;;;31.37;22.20;93686.66;5016272;28;20045;-58
2023/06/12 09:46:08;;;;;;;6.32;5.35;;;;;;;28.46;26.07;93696.19;5021595;28;20081;-58
2023/06/12 09:48:40;;;;;;;7.75;5.07;;;;;;;31.14;22.74;93697.09;5023537;28;20398;-59
2023/06/12 09:51:09;;;;;;;6.80;5.43;;;;;;;23.83;30.79;93696.06;5016483;28;20034;-58
2023/06/12 09:53:39;;;;;;;7.75;5.40;;;;;;;28.60;25.41;93703.41;5029453;28;20037;-58
2023/06/12 09:56:08;;;;;;;6.68;5.50;;;;;;;28.27;25.51;93702.66;5022299;28;20064;-60
2023/06/12 09:58:36;;;;;;;6.90;5.32;;;;;;;28.37;25.10;93688.09;5023922;28;20053;-59
2023/06/12 10:01:08;;;;;;;7.63;5.30;;;;;;;30.12;23.12;93699.59;5028945;28;20129;-63
2023/06/12 10:03:38;;;;;;;7.30;5.57;;;;;;;28.04;25.77;93690.94;5029631;28;20395;-62
2023/06/12 10:06:07;;;;;;;8.45;5.50;;;;;;;28.60;25.08;93689.28;5028798;28;20144;-59
2023/06/12 10:08:34;;;;;;;7.13;5.50;;;;;;;28.78;25.37;93686.94;5029189;28;20426;-64
2023/06/12 10:11:03;;;;;;;8.35;5.50;;;;;;;28.27;26.35;93687.75;5009005;28;20054;-58
2023/06/12 10:13:32;;;;;;;6.20;5.60;;;;;;;28.71;25.56;93690.38;5003342;28;20076;-60
2023/06/12 10:15:59;;;;;;;8.43;5.83;;;;;;;27.82;26.13;93677.91;5019416;28;20096;-61
2023/06/12 10:18:28;;;;;;;6.28;5.28;;;;;;;29.31;24.84;93675.63;4989875;28;20327;-58
2023/06/12 10:20:55;;;;;;;9.20;5.65;;;;;;;28.49;26.08;93680.97;5008631;28;20379;-59
2023/06/12 10:23:23;;;;;;;7.38;5.65;;;;;;;28.90;25.11;93671.28;5003401;28;20046;-64
2023/06/12 10:25:51;;;;;;;10.93;5.57;;;;;;;29.61;24.39;93668.84;5008707;28;20372;-66
2023/06/12 10:28:18;;;;;;;6.50;5.80;;;;;;;28.55;25.61;93681.66;5021793;28;20044;-66
2023/06/12 10:31:10;;;;;;;6.55;5.30;;;;;;;29.30;24.62;93657.19;5003216;28;20046;-56
2023/06/12 10:33:58;;;;;;;7.50;5.95;;;;;;;27.70;26.85;93668.09;5028029;28;20049;-61
2023/06/12 10:36:25;;;;;;;8.20;5.35;;;;;;;30.48;23.78;93655.81;5026724;28;20501;-59
2023/06/12 10:39:03;;;;;;;6.00;5.40;;;;;;;31.81;22.06;93654.69;5028247;28;20037;-58
2023/06/12 10:41:32;;;;;;;7.23;5.70;;;;;;;29.13;24.10;93668.06;5028791;28;20045;-63
2023/06/12 10:43:59;;;;;;;5.82;5.18;;;;;;;28.43;24.96;93669.81;5015072;28;20057;-60
2023/06/12 10:46:44;;;;;;;6.85;5.47;;;;;;;28.52;25.58;93667.88;5028892;28;20041;-61
2023/06/12 10:49:12;;;;;;;6.32;5.70;;;;;;;27.04;28.10;93662.78;5027662;28;21557;-60
2023/06/12 10:51:47;;;;;;;9.55;6.53;;;;;;;25.16;30.87;93664.00;5028865;28;20478;-57
2023/06/12 10:54:15;;;;;;;8.33;6.13;;;;;;;25.48;30.85;93667.94;5027881;28;20744;-56
2023/06/12 10:56:59;;;;;;;7.40;6.00;;;;;;;25.84;30.27;93676.38;5028623;28;20050;-56
2023/06/12 10:59:35;;;;;;;8.07;6.30;;;;;;;25.70;30.10;93669.09;5002435;28;20042;-65
2023/06/12 11:02:03;;;;;;;11.98;6.45;;;;;;;26.69;28.47;93664.44;5011706;28;20053;-57
2023/06/12 11:04:37;;;;;;;8.55;6.43;;;;;;;26.01;28.69;93645.34;5028774;28;20044;-58
2023/06/12 11:07:05;;;;;;;8.63;6.17;;;;;;;25.64;29.10;93660.69;5015650;28;20049;-57
2023/06/12 11:09:39;;;;;;;7.43;6.20;;;;;;;25.41;29.80;93662.09;5008745;28;20042;-57
2023/06/12 11:12:07;;;;;;;8.38;6.72;;;;;;;25.31;30.90;93653.19;5005887;28;20422;-62
2023/06/12 11:14:34;;;;;;;11.15;6.55;;;;;;;25.04;31.39;93652.03;4996129;28;20483;-65
2023/06/12 11:17:01;;;;;;;9.40;6.65;;;;;;;25.60;30.90;93646.16;5018283;28;20053;-61
2023/06/12 11:19:28;;;;;;;7.67;6.20;;;;;;;25.56;30.65;93651.28;5028492;28;20045;-57
2023/06/12 11:21:55;;;;;;;10.30;6.40;;;;;;;25.29;31.00;93653.75;5027642;28;20053;-57
2023/06/12 11:24:23;;;;;;;7.57;6.30;;;;;;;24.16;31.93;93646.88;5028387;28;20034;-57
2023/06/12 11:26:53;;;;;;;7.57;6.40;;;;;;;24.03;31.31;93670.59;5025501;28;20059;-59
2023/06/12 11:29:25;;;;;;;9.93;6.72;;;;;;;22.83;32.80;93653.22;5001708;28;20047;-57
2023/06/12 11:32:04;;;;;;;8.40;6.27;;;;;;;22.92;33.26;93650.22;5008273;28;20049;-60
2023/06/12 11:34:35;;;;;;;8.32;6.40;;;;;;;23.68;32.79;93654.22;5015368;28;20045;-60
2023/06/12 11:37:14;;;;;;;8.27;6.57;;;;;;;24.82;31.79;93645.22;5027959;28;20056;-61